sensor_id;sensor_type;location;lat;lon;timestamp;temperature;humidity
15099;DHT22;33900;53.640;9.942;2022-11-10T00:02:25;15.30;86.70
15099;DHT22;33900;53.640;9.942;2022-11-10T00:05:10;15.30;86.80
15099;DHT22;33900;53.640;9.942;2022-11-10T00:07:55;15.30;86.80
15099;DHT22;33900;53.640;9.942;2022-11-10T00:10:39;15.20;86.90
15099;DHT22;33900;53.640;9.942;2022-11-10T00:13:41;15.20;87.10
15099;DHT22;33900;53.640;9.942;2022-11-10T00:16:44;15.10;87.00
15099;DHT22;33900;53.640;9.942;2022-11-10T00:19:43;15.10;87.20
15099;DHT22;33900;53.640;9.942;2022-11-10T00:22:28;15.10;87.30
15099;DHT22;33900;53.640;9.942;2022-11-10T00:25:15;15.10;87.40
15099;DHT22;33900;53.640;9.942;2022-11-10T00:27:59;15.00;87.40
15099;DHT22;33900;53.640;9.942;2022-11-10T00:30:43;15.00;87.50
15099;DHT22;33900;53.640;9.942;2022-11-10T00:33:28;15.00;87.50
15099;DHT22;33900;53.640;9.942;2022-11-10T00:36:12;15.00;87.60
15099;DHT22;33900;53.640;9.942;2022-11-10T00:38:56;14.90;87.50
15099;DHT22;33900;53.640;9.942;2022-11-10T00:41:41;14.90;87.70
15099;DHT22;33900;53.640;9.942;2022-11-10T00:44:25;14.80;87.70
15099;DHT22;33900;53.640;9.942;2022-11-10T00:47:09;14.80;87.80
15099;DHT22;33900;53.640;9.942;2022-11-10T00:49:53;14.80;87.90
15099;DHT22;33900;53.640;9.942;2022-11-10T00:52:37;14.80;88.10
15099;DHT22;33900;53.640;9.942;2022-11-10T00:55:21;14.70;88.10
15099;DHT22;33900;53.640;9.942;2022-11-10T00:58:06;14.70;88.20
15099;DHT22;33900;53.640;9.942;2022-11-10T01:00:58;14.70;88.10
15099;DHT22;33900;53.640;9.942;2022-11-10T01:03:43;14.70;88.30
15099;DHT22;33900;53.640;9.942;2022-11-10T01:06:27;14.70;88.40
15099;DHT22;33900;53.640;9.942;2022-11-10T01:09:12;14.60;88.40
15099;DHT22;33900;53.640;9.942;2022-11-10T01:11:56;14.60;88.50
15099;DHT22;33900;53.640;9.942;2022-11-10T01:14:41;14.60;88.60
15099;DHT22;33900;53.640;9.942;2022-11-10T01:17:25;14.50;88.70
15099;DHT22;33900;53.640;9.942;2022-11-10T01:20:09;14.50;88.70
15099;DHT22;33900;53.640;9.942;2022-11-10T01:22:54;14.40;88.70
15099;DHT22;33900;53.640;9.942;2022-11-10T01:25:38;14.40;88.80
15099;DHT22;33900;53.640;9.942;2022-11-10T01:28:22;14.40;88.90
15099;DHT22;33900;53.640;9.942;2022-11-10T01:31:11;14.40;89.10
15099;DHT22;33900;53.640;9.942;2022-11-10T01:33:57;14.30;89.10
15099;DHT22;33900;53.640;9.942;2022-11-10T01:36:41;14.30;89.00
15099;DHT22;33900;53.640;9.942;2022-11-10T01:39:26;14.20;89.10
15099;DHT22;33900;53.640;9.942;2022-11-10T01:42:10;14.30;89.20
15099;DHT22;33900;53.640;9.942;2022-11-10T01:48:27;14.20;89.20
15099;DHT22;33900;53.640;9.942;2022-11-10T01:54:14;14.20;89.20
15099;DHT22;33900;53.640;9.942;2022-11-10T01:57:02;14.20;89.30
15099;DHT22;33900;53.640;9.942;2022-11-10T01:59:48;14.20;89.30
15099;DHT22;33900;53.640;9.942;2022-11-10T02:05:46;14.10;89.30
15099;DHT22;33900;53.640;9.942;2022-11-10T02:08:30;14.10;89.40
15099;DHT22;33900;53.640;9.942;2022-11-10T02:11:14;14.10;89.50
15099;DHT22;33900;53.640;9.942;2022-11-10T02:14:02;14.00;89.50
15099;DHT22;33900;53.640;9.942;2022-11-10T02:16:46;14.00;89.60
15099;DHT22;33900;53.640;9.942;2022-11-10T02:19:36;14.00;89.60
15099;DHT22;33900;53.640;9.942;2022-11-10T02:22:22;14.00;89.70
15099;DHT22;33900;53.640;9.942;2022-11-10T02:25:06;14.00;89.70
15099;DHT22;33900;53.640;9.942;2022-11-10T02:27:50;14.00;89.80
15099;DHT22;33900;53.640;9.942;2022-11-10T02:30:35;14.00;89.70
15099;DHT22;33900;53.640;9.942;2022-11-10T02:33:19;14.00;89.70
15099;DHT22;33900;53.640;9.942;2022-11-10T02:36:03;13.90;89.70
15099;DHT22;33900;53.640;9.942;2022-11-10T02:38:47;13.90;89.80
15099;DHT22;33900;53.640;9.942;2022-11-10T02:41:31;13.90;89.80
15099;DHT22;33900;53.640;9.942;2022-11-10T02:44:15;13.90;89.70
15099;DHT22;33900;53.640;9.942;2022-11-10T02:47:00;13.90;89.70
15099;DHT22;33900;53.640;9.942;2022-11-10T02:49:44;13.90;89.80
15099;DHT22;33900;53.640;9.942;2022-11-10T02:52:28;13.90;89.70
15099;DHT22;33900;53.640;9.942;2022-11-10T02:55:12;13.90;89.80
15099;DHT22;33900;53.640;9.942;2022-11-10T02:57:56;13.90;89.90
15099;DHT22;33900;53.640;9.942;2022-11-10T03:00:41;13.80;89.80
15099;DHT22;33900;53.640;9.942;2022-11-10T03:03:28;13.80;89.80
15099;DHT22;33900;53.640;9.942;2022-11-10T03:06:12;13.80;89.90
15099;DHT22;33900;53.640;9.942;2022-11-10T03:08:56;13.80;89.80
15099;DHT22;33900;53.640;9.942;2022-11-10T03:11:40;13.80;89.90
15099;DHT22;33900;53.640;9.942;2022-11-10T03:14:24;13.80;90.00
15099;DHT22;33900;53.640;9.942;2022-11-10T03:17:09;13.70;90.00
15099;DHT22;33900;53.640;9.942;2022-11-10T03:19:59;13.70;90.00
15099;DHT22;33900;53.640;9.942;2022-11-10T03:22:43;13.70;90.00
15099;DHT22;33900;53.640;9.942;2022-11-10T03:25:28;13.70;90.00
15099;DHT22;33900;53.640;9.942;2022-11-10T03:28:13;13.70;90.00
15099;DHT22;33900;53.640;9.942;2022-11-10T03:30:57;13.60;90.00
15099;DHT22;33900;53.640;9.942;2022-11-10T03:33:41;13.60;90.00
15099;DHT22;33900;53.640;9.942;2022-11-10T03:36:29;13.60;90.00
15099;DHT22;33900;53.640;9.942;2022-11-10T03:39:14;13.60;90.00
15099;DHT22;33900;53.640;9.942;2022-11-10T03:41:58;13.50;90.10
15099;DHT22;33900;53.640;9.942;2022-11-10T03:44:43;13.50;90.10
15099;DHT22;33900;53.640;9.942;2022-11-10T03:47:31;13.50;90.10
15099;DHT22;33900;53.640;9.942;2022-11-10T03:50:16;13.50;90.10
15099;DHT22;33900;53.640;9.942;2022-11-10T03:53:04;13.50;90.20
15099;DHT22;33900;53.640;9.942;2022-11-10T03:55:49;13.50;90.10
15099;DHT22;33900;53.640;9.942;2022-11-10T03:58:34;13.50;90.20
15099;DHT22;33900;53.640;9.942;2022-11-10T04:01:21;13.50;90.20
15099;DHT22;33900;53.640;9.942;2022-11-10T04:04:06;13.40;90.20
15099;DHT22;33900;53.640;9.942;2022-11-10T04:07:12;13.40;90.20
15099;DHT22;33900;53.640;9.942;2022-11-10T04:10:15;13.40;90.30
15099;DHT22;33900;53.640;9.942;2022-11-10T04:13:01;13.40;90.30
15099;DHT22;33900;53.640;9.942;2022-11-10T04:16:04;13.40;90.40
15099;DHT22;33900;53.640;9.942;2022-11-10T04:18:49;13.40;90.40
15099;DHT22;33900;53.640;9.942;2022-11-10T04:21:34;13.40;90.40
15099;DHT22;33900;53.640;9.942;2022-11-10T04:24:22;13.40;90.40
15099;DHT22;33900;53.640;9.942;2022-11-10T04:27:09;13.40;90.40
15099;DHT22;33900;53.640;9.942;2022-11-10T04:29:54;13.40;90.40
15099;DHT22;33900;53.640;9.942;2022-11-10T04:32:41;13.50;90.50
15099;DHT22;33900;53.640;9.942;2022-11-10T04:35:27;13.50;90.50
15099;DHT22;33900;53.640;9.942;2022-11-10T04:38:12;13.50;90.50
15099;DHT22;33900;53.640;9.942;2022-11-10T04:40:57;13.50;90.50
15099;DHT22;33900;53.640;9.942;2022-11-10T04:43:42;13.50;90.60
15099;DHT22;33900;53.640;9.942;2022-11-10T04:46:31;13.50;90.50
15099;DHT22;33900;53.640;9.942;2022-11-10T04:49:19;13.50;90.50
15099;DHT22;33900;53.640;9.942;2022-11-10T04:52:04;13.50;90.50
15099;DHT22;33900;53.640;9.942;2022-11-10T04:54:58;13.50;90.50
15099;DHT22;33900;53.640;9.942;2022-11-10T04:57:43;13.50;90.60
15099;DHT22;33900;53.640;9.942;2022-11-10T05:00:32;13.50;90.60
15099;DHT22;33900;53.640;9.942;2022-11-10T05:03:24;13.50;90.50
15099;DHT22;33900;53.640;9.942;2022-11-10T05:06:15;13.50;90.60
15099;DHT22;33900;53.640;9.942;2022-11-10T05:09:01;13.50;90.60
15099;DHT22;33900;53.640;9.942;2022-11-10T05:11:49;13.50;90.60
15099;DHT22;33900;53.640;9.942;2022-11-10T05:15:13;13.50;90.70
15099;DHT22;33900;53.640;9.942;2022-11-10T05:18:06;13.50;90.70
15099;DHT22;33900;53.640;9.942;2022-11-10T05:20:57;13.50;90.60
15099;DHT22;33900;53.640;9.942;2022-11-10T05:23:45;13.60;90.70
15099;DHT22;33900;53.640;9.942;2022-11-10T05:26:30;13.60;90.70
15099;DHT22;33900;53.640;9.942;2022-11-10T05:29:14;13.60;90.70
15099;DHT22;33900;53.640;9.942;2022-11-10T05:31:59;13.60;90.70
15099;DHT22;33900;53.640;9.942;2022-11-10T05:34:44;13.60;90.70
15099;DHT22;33900;53.640;9.942;2022-11-10T05:37:37;13.60;90.70
15099;DHT22;33900;53.640;9.942;2022-11-10T05:40:28;13.60;90.70
15099;DHT22;33900;53.640;9.942;2022-11-10T05:43:14;13.60;90.70
15099;DHT22;33900;53.640;9.942;2022-11-10T05:46:02;13.60;90.70
15099;DHT22;33900;53.640;9.942;2022-11-10T05:48:47;13.60;90.60
15099;DHT22;33900;53.640;9.942;2022-11-10T05:51:34;13.60;90.70
15099;DHT22;33900;53.640;9.942;2022-11-10T05:54:22;13.60;90.70
15099;DHT22;33900;53.640;9.942;2022-11-10T05:57:10;13.60;90.70
15099;DHT22;33900;53.640;9.942;2022-11-10T05:59:59;13.60;90.70
15099;DHT22;33900;53.640;9.942;2022-11-10T06:02:44;13.50;90.70
15099;DHT22;33900;53.640;9.942;2022-11-10T06:05:38;13.60;90.70
15099;DHT22;33900;53.640;9.942;2022-11-10T06:08:23;13.60;90.70
15099;DHT22;33900;53.640;9.942;2022-11-10T06:11:11;13.60;90.70
15099;DHT22;33900;53.640;9.942;2022-11-10T06:13:56;13.60;90.70
15099;DHT22;33900;53.640;9.942;2022-11-10T06:16:44;13.60;90.70
15099;DHT22;33900;53.640;9.942;2022-11-10T06:19:29;13.60;90.80
15099;DHT22;33900;53.640;9.942;2022-11-10T06:22:14;13.60;90.70
15099;DHT22;33900;53.640;9.942;2022-11-10T06:24:59;13.60;90.70
15099;DHT22;33900;53.640;9.942;2022-11-10T06:27:44;13.50;90.70
15099;DHT22;33900;53.640;9.942;2022-11-10T06:30:55;13.60;90.70
15099;DHT22;33900;53.640;9.942;2022-11-10T06:34:14;13.50;90.70
15099;DHT22;33900;53.640;9.942;2022-11-10T06:37:35;13.50;90.70
15099;DHT22;33900;53.640;9.942;2022-11-10T06:41:05;13.50;90.80
15099;DHT22;33900;53.640;9.942;2022-11-10T06:44:13;13.50;90.80
15099;DHT22;33900;53.640;9.942;2022-11-10T06:46:59;13.50;90.80
15099;DHT22;33900;53.640;9.942;2022-11-10T06:49:44;13.40;90.80
15099;DHT22;33900;53.640;9.942;2022-11-10T06:52:29;13.50;90.80
15099;DHT22;33900;53.640;9.942;2022-11-10T06:55:35;13.40;90.80
15099;DHT22;33900;53.640;9.942;2022-11-10T06:58:20;13.50;90.90
15099;DHT22;33900;53.640;9.942;2022-11-10T07:01:05;13.40;90.80
15099;DHT22;33900;53.640;9.942;2022-11-10T07:03:51;13.40;90.80
15099;DHT22;33900;53.640;9.942;2022-11-10T07:06:40;13.50;90.90
15099;DHT22;33900;53.640;9.942;2022-11-10T07:09:26;13.40;90.90
15099;DHT22;33900;53.640;9.942;2022-11-10T07:12:10;13.40;90.80
15099;DHT22;33900;53.640;9.942;2022-11-10T07:14:55;13.40;90.90
15099;DHT22;33900;53.640;9.942;2022-11-10T07:21:20;13.40;90.90
15099;DHT22;33900;53.640;9.942;2022-11-10T07:24:23;13.40;90.80
15099;DHT22;33900;53.640;9.942;2022-11-10T07:27:08;13.40;90.90
15099;DHT22;33900;53.640;9.942;2022-11-10T07:29:53;13.40;90.90
15099;DHT22;33900;53.640;9.942;2022-11-10T07:32:38;13.40;90.90
15099;DHT22;33900;53.640;9.942;2022-11-10T07:35:24;13.40;90.90
15099;DHT22;33900;53.640;9.942;2022-11-10T07:38:13;13.50;90.90
15099;DHT22;33900;53.640;9.942;2022-11-10T07:41:15;13.50;90.90
15099;DHT22;33900;53.640;9.942;2022-11-10T07:44:09;13.50;90.90
15099;DHT22;33900;53.640;9.942;2022-11-10T07:47:03;13.50;90.90
15099;DHT22;33900;53.640;9.942;2022-11-10T07:50:08;13.50;90.90
15099;DHT22;33900;53.640;9.942;2022-11-10T07:56:19;13.60;90.90
15099;DHT22;33900;53.640;9.942;2022-11-10T07:59:08;13.60;90.90
15099;DHT22;33900;53.640;9.942;2022-11-10T08:01:53;13.60;91.00
15099;DHT22;33900;53.640;9.942;2022-11-10T08:04:38;13.60;90.90
15099;DHT22;33900;53.640;9.942;2022-11-10T08:07:26;13.60;90.90
15099;DHT22;33900;53.640;9.942;2022-11-10T08:10:13;13.60;90.80
15099;DHT22;33900;53.640;9.942;2022-11-10T08:13:01;13.70;90.90
15099;DHT22;33900;53.640;9.942;2022-11-10T08:15:48;13.60;90.90
15099;DHT22;33900;53.640;9.942;2022-11-10T08:18:33;13.70;90.90
15099;DHT22;33900;53.640;9.942;2022-11-10T08:21:20;13.70;90.90
15099;DHT22;33900;53.640;9.942;2022-11-10T08:24:08;13.70;90.90
15099;DHT22;33900;53.640;9.942;2022-11-10T08:27:04;13.80;90.90
15099;DHT22;33900;53.640;9.942;2022-11-10T08:34:05;13.80;91.00
15099;DHT22;33900;53.640;9.942;2022-11-10T08:37:38;13.90;90.90
15099;DHT22;33900;53.640;9.942;2022-11-10T08:40:34;13.90;90.90
15099;DHT22;33900;53.640;9.942;2022-11-10T08:43:20;13.90;90.90
15099;DHT22;33900;53.640;9.942;2022-11-10T08:46:26;13.90;90.90
15099;DHT22;33900;53.640;9.942;2022-11-10T08:49:13;13.90;90.90
15099;DHT22;33900;53.640;9.942;2022-11-10T08:51:58;14.00;90.80
15099;DHT22;33900;53.640;9.942;2022-11-10T08:54:42;14.00;90.80
15099;DHT22;33900;53.640;9.942;2022-11-10T08:57:27;14.10;90.80
15099;DHT22;33900;53.640;9.942;2022-11-10T09:00:26;14.10;90.80
15099;DHT22;33900;53.640;9.942;2022-11-10T09:03:18;14.10;90.80
15099;DHT22;33900;53.640;9.942;2022-11-10T09:06:13;14.10;90.70
15099;DHT22;33900;53.640;9.942;2022-11-10T09:09:03;14.20;90.70
15099;DHT22;33900;53.640;9.942;2022-11-10T09:11:48;14.20;90.70
15099;DHT22;33900;53.640;9.942;2022-11-10T09:14:34;14.20;90.80
15099;DHT22;33900;53.640;9.942;2022-11-10T09:17:23;14.20;90.80
15099;DHT22;33900;53.640;9.942;2022-11-10T09:20:10;14.30;90.80
15099;DHT22;33900;53.640;9.942;2022-11-10T09:23:05;14.30;90.80
15099;DHT22;33900;53.640;9.942;2022-11-10T09:25:52;14.30;90.70
15099;DHT22;33900;53.640;9.942;2022-11-10T09:28:37;14.40;90.70
15099;DHT22;33900;53.640;9.942;2022-11-10T09:31:22;14.40;90.70
15099;DHT22;33900;53.640;9.942;2022-11-10T09:34:08;14.50;90.70
15099;DHT22;33900;53.640;9.942;2022-11-10T09:36:56;14.50;90.70
15099;DHT22;33900;53.640;9.942;2022-11-10T09:39:58;14.50;90.70
15099;DHT22;33900;53.640;9.942;2022-11-10T09:42:44;14.50;90.70
15099;DHT22;33900;53.640;9.942;2022-11-10T09:45:37;14.60;90.60
15099;DHT22;33900;53.640;9.942;2022-11-10T09:48:25;14.60;90.60
15099;DHT22;33900;53.640;9.942;2022-11-10T09:51:13;14.60;90.60
15099;DHT22;33900;53.640;9.942;2022-11-10T09:57:17;14.70;90.50
15099;DHT22;33900;53.640;9.942;2022-11-10T10:00:14;14.70;90.50
15099;DHT22;33900;53.640;9.942;2022-11-10T10:07:06;14.80;90.50
15099;DHT22;33900;53.640;9.942;2022-11-10T10:12:55;14.80;90.40
15099;DHT22;33900;53.640;9.942;2022-11-10T10:15:49;14.90;90.40
15099;DHT22;33900;53.640;9.942;2022-11-10T10:21:29;14.90;90.40
15099;DHT22;33900;53.640;9.942;2022-11-10T10:24:26;15.00;90.40
15099;DHT22;33900;53.640;9.942;2022-11-10T10:27:23;15.00;90.40
15099;DHT22;33900;53.640;9.942;2022-11-10T10:30:27;15.00;90.30
15099;DHT22;33900;53.640;9.942;2022-11-10T10:33:21;15.10;90.20
15099;DHT22;33900;53.640;9.942;2022-11-10T10:36:09;15.10;90.20
15099;DHT22;33900;53.640;9.942;2022-11-10T10:39:08;15.10;90.20
15099;DHT22;33900;53.640;9.942;2022-11-10T10:45:18;15.10;90.20
15099;DHT22;33900;53.640;9.942;2022-11-10T10:55:05;15.30;90.10
15099;DHT22;33900;53.640;9.942;2022-11-10T10:57:55;15.20;90.00
15099;DHT22;33900;53.640;9.942;2022-11-10T11:00:45;15.20;90.00
15099;DHT22;33900;53.640;9.942;2022-11-10T11:03:46;15.30;90.00
15099;DHT22;33900;53.640;9.942;2022-11-10T11:06:32;15.30;90.00
15099;DHT22;33900;53.640;9.942;2022-11-10T11:09:37;15.30;90.00
15099;DHT22;33900;53.640;9.942;2022-11-10T11:12:27;15.30;89.90
15099;DHT22;33900;53.640;9.942;2022-11-10T11:15:28;15.30;89.90
15099;DHT22;33900;53.640;9.942;2022-11-10T11:18:14;15.30;90.00
15099;DHT22;33900;53.640;9.942;2022-11-10T11:21:12;15.30;90.00
15099;DHT22;33900;53.640;9.942;2022-11-10T11:24:05;15.40;89.90
15099;DHT22;33900;53.640;9.942;2022-11-10T11:41:56;15.50;89.40
15099;DHT22;33900;53.640;9.942;2022-11-10T11:56:31;15.60;89.30
15099;DHT22;33900;53.640;9.942;2022-11-10T11:59:22;15.60;89.30
15099;DHT22;33900;53.640;9.942;2022-11-10T12:11:58;15.70;89.20
15099;DHT22;33900;53.640;9.942;2022-11-10T12:21:02;15.70;88.90
15099;DHT22;33900;53.640;9.942;2022-11-10T12:27:19;15.70;88.80
15099;DHT22;33900;53.640;9.942;2022-11-10T12:30:11;15.70;88.80
15099;DHT22;33900;53.640;9.942;2022-11-10T12:35:57;15.70;88.70
15099;DHT22;33900;53.640;9.942;2022-11-10T12:41:54;15.70;88.70
15099;DHT22;33900;53.640;9.942;2022-11-10T12:47:40;15.80;88.70
15099;DHT22;33900;53.640;9.942;2022-11-10T12:53:19;15.70;88.50
15099;DHT22;33900;53.640;9.942;2022-11-10T12:56:07;15.70;88.50
15099;DHT22;33900;53.640;9.942;2022-11-10T13:14:33;15.70;88.40
15099;DHT22;33900;53.640;9.942;2022-11-10T13:32:33;15.70;88.50
15099;DHT22;33900;53.640;9.942;2022-11-10T13:38:32;15.70;88.60
15099;DHT22;33900;53.640;9.942;2022-11-10T13:41:21;15.70;88.50
15099;DHT22;33900;53.640;9.942;2022-11-10T13:47:14;15.70;88.60
15099;DHT22;33900;53.640;9.942;2022-11-10T13:53:07;15.70;88.60
15099;DHT22;33900;53.640;9.942;2022-11-10T13:59:13;15.70;88.50
15099;DHT22;33900;53.640;9.942;2022-11-10T14:05:07;15.70;88.50
15099;DHT22;33900;53.640;9.942;2022-11-10T14:08:11;15.70;88.50
15099;DHT22;33900;53.640;9.942;2022-11-10T14:11:01;15.70;88.60
15099;DHT22;33900;53.640;9.942;2022-11-10T14:17:12;15.70;88.50
15099;DHT22;33900;53.640;9.942;2022-11-10T14:19:58;15.70;88.40
15099;DHT22;33900;53.640;9.942;2022-11-10T14:22:46;15.70;88.40
15099;DHT22;33900;53.640;9.942;2022-11-10T14:25:34;15.70;88.40
15099;DHT22;33900;53.640;9.942;2022-11-10T14:28:24;15.70;88.40
15099;DHT22;33900;53.640;9.942;2022-11-10T14:31:15;15.70;88.40
15099;DHT22;33900;53.640;9.942;2022-11-10T14:37:12;15.80;88.30
15099;DHT22;33900;53.640;9.942;2022-11-10T14:40:00;15.80;88.30
15099;DHT22;33900;53.640;9.942;2022-11-10T14:42:44;15.80;88.30
15099;DHT22;33900;53.640;9.942;2022-11-10T14:45:35;15.80;88.30
15099;DHT22;33900;53.640;9.942;2022-11-10T14:48:25;15.90;88.30
15099;DHT22;33900;53.640;9.942;2022-11-10T14:51:12;15.80;88.20
15099;DHT22;33900;53.640;9.942;2022-11-10T14:53:59;15.80;88.20
15099;DHT22;33900;53.640;9.942;2022-11-10T14:56:54;15.80;88.20
15099;DHT22;33900;53.640;9.942;2022-11-10T14:59:39;15.90;88.30
15099;DHT22;33900;53.640;9.942;2022-11-10T15:02:23;15.90;88.30
15099;DHT22;33900;53.640;9.942;2022-11-10T15:05:26;15.90;88.20
15099;DHT22;33900;53.640;9.942;2022-11-10T15:11:48;15.90;88.20
15099;DHT22;33900;53.640;9.942;2022-11-10T15:14:40;15.90;88.10
15099;DHT22;33900;53.640;9.942;2022-11-10T15:17:44;15.80;88.10
15099;DHT22;33900;53.640;9.942;2022-11-10T15:20:31;15.80;88.10
15099;DHT22;33900;53.640;9.942;2022-11-10T15:23:19;15.80;88.10
15099;DHT22;33900;53.640;9.942;2022-11-10T15:26:04;15.80;88.00
15099;DHT22;33900;53.640;9.942;2022-11-10T15:28:48;15.80;88.10
15099;DHT22;33900;53.640;9.942;2022-11-10T15:31:33;15.80;88.00
15099;DHT22;33900;53.640;9.942;2022-11-10T15:34:53;15.90;88.10
15099;DHT22;33900;53.640;9.942;2022-11-10T15:37:30;15.90;88.00
15099;DHT22;33900;53.640;9.942;2022-11-10T15:40:32;15.90;88.00
15099;DHT22;33900;53.640;9.942;2022-11-10T15:46:11;15.90;88.00
15099;DHT22;33900;53.640;9.942;2022-11-10T15:48:55;15.90;88.00
15099;DHT22;33900;53.640;9.942;2022-11-10T15:51:40;15.90;88.00
15099;DHT22;33900;53.640;9.942;2022-11-10T15:54:24;15.90;87.90
15099;DHT22;33900;53.640;9.942;2022-11-10T15:57:13;15.90;88.00
15099;DHT22;33900;53.640;9.942;2022-11-10T15:59:58;15.90;87.90
15099;DHT22;33900;53.640;9.942;2022-11-10T16:02:42;15.90;88.00
15099;DHT22;33900;53.640;9.942;2022-11-10T16:05:27;15.90;87.90
15099;DHT22;33900;53.640;9.942;2022-11-10T16:08:21;15.90;87.70
15099;DHT22;33900;53.640;9.942;2022-11-10T16:11:11;15.90;87.90
15099;DHT22;33900;53.640;9.942;2022-11-10T16:14:02;15.90;87.70
15099;DHT22;33900;53.640;9.942;2022-11-10T16:16:48;15.90;87.60
15099;DHT22;33900;53.640;9.942;2022-11-10T16:19:33;15.90;87.70
15099;DHT22;33900;53.640;9.942;2022-11-10T16:22:17;15.90;87.70
15099;DHT22;33900;53.640;9.942;2022-11-10T16:25:04;15.90;87.60
15099;DHT22;33900;53.640;9.942;2022-11-10T16:27:48;15.90;87.60
15099;DHT22;33900;53.640;9.942;2022-11-10T16:30:32;15.90;87.60
15099;DHT22;33900;53.640;9.942;2022-11-10T16:33:18;15.90;87.60
15099;DHT22;33900;53.640;9.942;2022-11-10T16:36:11;15.90;87.50
15099;DHT22;33900;53.640;9.942;2022-11-10T16:38:57;15.90;87.50
15099;DHT22;33900;53.640;9.942;2022-11-10T16:41:44;15.90;87.60
15099;DHT22;33900;53.640;9.942;2022-11-10T16:44:29;15.90;87.50
15099;DHT22;33900;53.640;9.942;2022-11-10T16:47:15;15.90;87.30
15099;DHT22;33900;53.640;9.942;2022-11-10T16:50:00;16.00;87.40
15099;DHT22;33900;53.640;9.942;2022-11-10T16:52:45;16.00;87.40
15099;DHT22;33900;53.640;9.942;2022-11-10T16:55:29;16.00;87.40
15099;DHT22;33900;53.640;9.942;2022-11-10T16:58:14;16.00;87.40
15099;DHT22;33900;53.640;9.942;2022-11-10T17:01:01;16.00;87.30
15099;DHT22;33900;53.640;9.942;2022-11-10T17:03:47;16.00;87.20
15099;DHT22;33900;53.640;9.942;2022-11-10T17:06:35;16.00;87.30
15099;DHT22;33900;53.640;9.942;2022-11-10T17:09:23;16.00;87.20
15099;DHT22;33900;53.640;9.942;2022-11-10T17:12:13;16.00;87.20
15099;DHT22;33900;53.640;9.942;2022-11-10T17:14:57;16.00;87.10
15099;DHT22;33900;53.640;9.942;2022-11-10T17:17:45;16.00;87.10
15099;DHT22;33900;53.640;9.942;2022-11-10T17:20:32;16.00;87.10
15099;DHT22;33900;53.640;9.942;2022-11-10T17:23:18;16.00;87.10
15099;DHT22;33900;53.640;9.942;2022-11-10T17:26:03;16.00;87.10
15099;DHT22;33900;53.640;9.942;2022-11-10T17:28:48;16.00;87.10
15099;DHT22;33900;53.640;9.942;2022-11-10T17:31:32;16.00;87.00
15099;DHT22;33900;53.640;9.942;2022-11-10T17:34:17;16.00;87.00
15099;DHT22;33900;53.640;9.942;2022-11-10T17:37:02;16.10;87.10
15099;DHT22;33900;53.640;9.942;2022-11-10T17:39:46;16.10;87.00
15099;DHT22;33900;53.640;9.942;2022-11-10T17:42:30;16.10;87.10
15099;DHT22;33900;53.640;9.942;2022-11-10T17:45:19;16.10;87.10
15099;DHT22;33900;53.640;9.942;2022-11-10T17:48:04;16.00;86.90
15099;DHT22;33900;53.640;9.942;2022-11-10T17:50:49;16.00;87.00
15099;DHT22;33900;53.640;9.942;2022-11-10T17:53:33;16.10;87.00
15099;DHT22;33900;53.640;9.942;2022-11-10T17:56:18;16.10;86.90
15099;DHT22;33900;53.640;9.942;2022-11-10T17:59:03;16.10;86.90
15099;DHT22;33900;53.640;9.942;2022-11-10T18:01:47;16.10;86.90
15099;DHT22;33900;53.640;9.942;2022-11-10T18:04:32;16.10;86.90
15099;DHT22;33900;53.640;9.942;2022-11-10T18:07:16;16.10;86.80
15099;DHT22;33900;53.640;9.942;2022-11-10T18:10:03;16.10;86.80
15099;DHT22;33900;53.640;9.942;2022-11-10T18:12:48;16.10;86.80
15099;DHT22;33900;53.640;9.942;2022-11-10T18:15:32;16.10;86.80
15099;DHT22;33900;53.640;9.942;2022-11-10T18:18:21;16.10;86.80
15099;DHT22;33900;53.640;9.942;2022-11-10T18:21:05;16.10;86.70
15099;DHT22;33900;53.640;9.942;2022-11-10T18:23:51;16.10;86.70
15099;DHT22;33900;53.640;9.942;2022-11-10T18:26:35;16.10;86.70
15099;DHT22;33900;53.640;9.942;2022-11-10T18:29:38;16.10;86.80
15099;DHT22;33900;53.640;9.942;2022-11-10T18:32:22;16.10;86.80
15099;DHT22;33900;53.640;9.942;2022-11-10T18:38:49;16.10;86.70
15099;DHT22;33900;53.640;9.942;2022-11-10T18:41:33;16.10;86.70
15099;DHT22;33900;53.640;9.942;2022-11-10T18:44:37;16.00;86.70
15099;DHT22;33900;53.640;9.942;2022-11-10T18:47:21;16.00;86.70
15099;DHT22;33900;53.640;9.942;2022-11-10T18:50:06;16.00;86.70
15099;DHT22;33900;53.640;9.942;2022-11-10T18:52:53;16.00;86.70
15099;DHT22;33900;53.640;9.942;2022-11-10T18:55:38;16.10;86.80
15099;DHT22;33900;53.640;9.942;2022-11-10T19:02:03;16.00;86.70
15099;DHT22;33900;53.640;9.942;2022-11-10T19:04:48;16.10;86.70
15099;DHT22;33900;53.640;9.942;2022-11-10T19:07:33;16.10;86.70
15099;DHT22;33900;53.640;9.942;2022-11-10T19:10:17;16.10;86.60
15099;DHT22;33900;53.640;9.942;2022-11-10T19:16:23;16.10;86.60
15099;DHT22;33900;53.640;9.942;2022-11-10T19:19:08;16.10;86.50
15099;DHT22;33900;53.640;9.942;2022-11-10T19:21:53;16.10;86.60
15099;DHT22;33900;53.640;9.942;2022-11-10T19:24:37;16.10;86.60
15099;DHT22;33900;53.640;9.942;2022-11-10T19:27:22;16.10;86.50
15099;DHT22;33900;53.640;9.942;2022-11-10T19:30:06;16.10;86.60
15099;DHT22;33900;53.640;9.942;2022-11-10T19:32:51;16.10;86.50
15099;DHT22;33900;53.640;9.942;2022-11-10T19:35:39;16.00;86.50
15099;DHT22;33900;53.640;9.942;2022-11-10T19:38:26;16.10;86.60
15099;DHT22;33900;53.640;9.942;2022-11-10T19:41:12;16.10;86.60
15099;DHT22;33900;53.640;9.942;2022-11-10T19:43:58;16.10;86.50
15099;DHT22;33900;53.640;9.942;2022-11-10T19:46:43;16.10;86.50
15099;DHT22;33900;53.640;9.942;2022-11-10T19:49:29;16.10;86.60
15099;DHT22;33900;53.640;9.942;2022-11-10T19:52:15;16.10;86.50
15099;DHT22;33900;53.640;9.942;2022-11-10T19:54:59;16.10;86.50
15099;DHT22;33900;53.640;9.942;2022-11-10T19:57:44;16.20;86.50
15099;DHT22;33900;53.640;9.942;2022-11-10T20:00:29;16.20;86.50
15099;DHT22;33900;53.640;9.942;2022-11-10T20:03:14;16.20;86.30
15099;DHT22;33900;53.640;9.942;2022-11-10T20:06:01;16.30;86.40
15099;DHT22;33900;53.640;9.942;2022-11-10T20:08:46;16.30;86.30
15099;DHT22;33900;53.640;9.942;2022-11-10T20:11:34;16.30;86.30
15099;DHT22;33900;53.640;9.942;2022-11-10T20:14:19;16.40;85.90
15099;DHT22;33900;53.640;9.942;2022-11-10T20:17:03;16.40;85.80
15099;DHT22;33900;53.640;9.942;2022-11-10T20:19:48;16.40;85.80
15099;DHT22;33900;53.640;9.942;2022-11-10T20:22:32;16.50;85.60
15099;DHT22;33900;53.640;9.942;2022-11-10T20:25:16;16.50;85.50
15099;DHT22;33900;53.640;9.942;2022-11-10T20:28:01;16.50;85.30
15099;DHT22;33900;53.640;9.942;2022-11-10T20:30:48;16.60;85.20
15099;DHT22;33900;53.640;9.942;2022-11-10T20:33:33;16.60;85.00
15099;DHT22;33900;53.640;9.942;2022-11-10T20:36:19;16.60;84.70